Terminal Aerodrome Forecast
Issued by NWS

Home | Current Version | Previous Version | Graphics & Text | Print | Product List | Glossary On
Versions: 1 2 3 4 5 6 7 8 9 10 11 12 13 14 15 16
000
FTUS43 KIWX 261100
TAFSBN
TAF
KSBN 261120Z 2612/2712 18008KT P6SM BKN008
     FM261400 18012KT P6SM BKN025
     FM261900 18016G24KT P6SM BKN050
      TEMPO 2619/2622 4SM -TSRA BKN025CB
     FM270300 20013KT P6SM BKN070=

USA.gov is the U.S. government's official web portal to all federal, state and local government web resources and services.